Time;durP1;ratioP1;P1;durP2;ratioP2;P2;SDS_P1;SDS_P2;PMS_P1;PMS_P2;Temp;Humidity;BMP_temperature;BMP_pressure;BME280_temperature;BME280_humidity;BME280_pressure;Samples;Min_cycle;Max_cycle;Signal;HPM_P1;HPM_P2
2022/09/13 00:00:49;;;;;;;22.97;19.07;;;11.70;99.90;;;;;;5115004;28;20196;-76
2022/09/13 00:03:15;;;;;;;22.13;18.60;;;11.70;99.90;;;;;;5114974;28;20618;-76
2022/09/13 00:05:42;;;;;;;23.43;18.10;;;11.70;99.90;;;;;;5115049;28;20246;-76
2022/09/13 00:08:09;;;;;;;23.30;19.03;;;11.80;99.90;;;;;;5115063;28;20195;-76
2022/09/13 00:10:38;;;;;;;22.53;18.20;;;11.70;99.90;;;;;;5115030;28;20204;-76
2022/09/13 00:13:07;;;;;;;23.50;20.27;;;11.70;99.90;;;;;;5114955;28;20290;-76
2022/09/13 00:15:35;;;;;;;26.00;20.07;;;11.70;99.90;;;;;;5114747;28;20226;-76
2022/09/13 00:18:02;;;;;;;22.03;19.43;;;11.70;99.90;;;;;;5114967;28;20261;-76
2022/09/13 00:20:29;;;;;;;26.07;19.47;;;11.60;99.90;;;;;;5114959;28;20199;-76
2022/09/13 00:22:55;;;;;;;24.37;19.53;;;11.50;99.90;;;;;;5114831;28;20272;-76
2022/09/13 00:25:22;;;;;;;23.83;18.33;;;11.60;99.90;;;;;;5114947;28;20207;-76
2022/09/13 00:27:48;;;;;;;24.63;20.20;;;11.50;99.90;;;;;;5114676;28;20199;-76
2022/09/13 00:30:15;;;;;;;24.20;19.47;;;11.50;99.90;;;;;;5114448;28;20650;-76
2022/09/13 00:32:43;;;;;;;26.60;19.70;;;11.60;99.90;;;;;;5114596;28;20686;-76
2022/09/13 00:35:10;;;;;;;25.03;20.50;;;11.50;99.90;;;;;;5114610;28;20227;-76
2022/09/13 00:37:38;;;;;;;25.93;20.73;;;11.50;99.90;;;;;;5114722;28;20666;-76
2022/09/13 00:40:06;;;;;;;22.93;19.83;;;11.50;99.90;;;;;;5114486;28;20192;-76
2022/09/13 00:42:33;;;;;;;22.30;19.13;;;11.50;99.90;;;;;;5114399;28;20604;-76
2022/09/13 00:45:01;;;;;;;27.10;20.97;;;11.50;99.90;;;;;;5114647;28;20240;-76
2022/09/13 00:47:34;;;;;;;26.17;20.30;;;11.50;99.90;;;;;;5114375;28;20211;-76
2022/09/13 00:50:08;;;;;;;29.17;21.50;;;11.50;99.90;;;;;;5114465;28;20196;-76
2022/09/13 00:52:35;;;;;;;25.10;19.57;;;11.40;99.90;;;;;;5114302;28;20191;-76
2022/09/13 00:55:10;;;;;;;24.50;20.50;;;11.50;99.90;;;;;;5076874;28;1049707;-76
2022/09/13 00:57:37;;;;;;;23.03;19.53;;;11.50;99.90;;;;;;5115435;28;20247;-76
2022/09/13 01:00:10;;;;;;;26.23;20.50;;;11.40;99.90;;;;;;5115231;28;20272;-76
2022/09/13 01:02:38;;;;;;;26.87;21.03;;;11.40;99.90;;;;;;5115217;28;20203;-76
2022/09/13 01:05:07;;;;;;;26.43;21.17;;;11.30;99.90;;;;;;5115073;28;20601;-76
2022/09/13 01:07:34;;;;;;;29.17;20.93;;;11.40;99.90;;;;;;5114872;27;20195;-76
2022/09/13 01:10:06;;;;;;;22.83;19.60;;;11.30;99.90;;;;;;5115143;28;20195;-76
2022/09/13 01:12:37;;;;;;;24.47;20.87;;;11.40;99.90;;;;;;5114807;28;20206;-76
2022/09/13 01:15:05;;;;;;;24.10;19.73;;;11.30;99.90;;;;;;5114779;28;20694;-76
2022/09/13 01:17:33;;;;;;;22.67;20.10;;;11.30;99.90;;;;;;5114892;28;20203;-76
2022/09/13 01:20:01;;;;;;;26.43;20.97;;;11.20;99.90;;;;;;5114689;28;20207;-76
2022/09/13 01:23:11;;;;;;;27.33;20.90;;;11.30;99.90;;;;;;5114610;28;20658;-76
2022/09/13 01:26:04;;;;;;;25.13;20.33;;;11.30;99.90;;;;;;5113791;28;20682;-76
2022/09/13 01:28:58;;;;;;;25.13;21.20;;;11.30;99.90;;;;;;5080472;28;20207;-76
2022/09/13 01:31:35;;;;;;;26.33;21.27;;;11.20;99.90;;;;;;5114726;28;20195;-76
2022/09/13 01:34:13;;;;;;;26.70;21.30;;;11.20;99.90;;;;;;5114584;28;20604;-76
2022/09/13 01:37:06;;;;;;;25.77;20.50;;;11.30;99.90;;;;;;5114473;28;20203;-76
2022/09/13 01:39:54;;;;;;;28.63;20.53;;;11.10;99.90;;;;;;5114351;28;20195;-76
2022/09/13 01:42:31;;;;;;;28.37;22.27;;;11.00;99.90;;;;;;5114356;28;20196;-76
2022/09/13 01:45:09;;;;;;;28.27;22.70;;;11.10;99.90;;;;;;5114312;28;20282;-77
2022/09/13 01:47:48;;;;;;;28.37;22.07;;;11.10;99.90;;;;;;5114385;28;20199;-76
2022/09/13 01:50:21;;;;;;;29.77;22.57;;;11.10;99.90;;;;;;5114216;28;20203;-76
2022/09/13 01:52:53;;;;;;;28.90;22.60;;;11.00;99.90;;;;;;5114167;28;20206;-76
2022/09/13 01:55:30;;;;;;;27.37;22.37;;;11.00;99.90;;;;;;5113800;28;20682;-76
2022/09/13 01:58:08;;;;;;;24.23;20.07;;;11.00;99.90;;;;;;5114055;28;20191;-76
2022/09/13 02:00:41;;;;;;;29.03;22.50;;;11.00;99.90;;;;;;5113949;28;20721;-76
2022/09/13 02:03:14;;;;;;;30.30;22.30;;;11.00;99.90;;;;;;5113976;28;20245;-76
2022/09/13 02:05:45;;;;;;;32.07;22.27;;;11.00;99.90;;;;;;5113850;28;20195;-76
2022/09/13 02:08:16;;;;;;;27.93;22.53;;;11.00;99.90;;;;;;5113801;28;20203;-76
2022/09/13 02:10:47;;;;;;;29.53;22.13;;;11.00;99.90;;;;;;5113786;28;20256;-76
2022/09/13 02:13:17;;;;;;;32.20;23.20;;;11.00;99.90;;;;;;5113874;28;20248;-76
2022/09/13 02:15:47;;;;;;;33.07;24.60;;;11.00;99.90;;;;;;5113702;28;20276;-76
2022/09/13 02:18:21;;;;;;;36.70;24.67;;;11.00;99.90;;;;;;5113660;28;20199;-76
2022/09/13 02:20:51;;;;;;;31.27;23.40;;;11.00;99.90;;;;;;5113956;28;20196;-76
2022/09/13 02:23:22;;;;;;;32.03;23.23;;;11.00;99.90;;;;;;5113675;28;20727;-76
2022/09/13 02:25:51;;;;;;;33.20;23.67;;;11.00;99.90;;;;;;5113795;28;20195;-76
2022/09/13 02:28:23;;;;;;;33.63;23.03;;;10.90;99.90;;;;;;5113553;28;20199;-76
2022/09/13 02:30:52;;;;;;;31.17;23.20;;;11.00;99.90;;;;;;5113401;28;20536;-76
2022/09/13 02:33:24;;;;;;;33.17;24.03;;;10.90;99.90;;;;;;5113638;28;20295;-76
2022/09/13 02:35:55;;;;;;;33.67;23.60;;;10.90;99.90;;;;;;5113607;28;20317;-76
2022/09/13 02:38:26;;;;;;;35.57;24.40;;;10.90;99.90;;;;;;5113701;28;20200;-76
2022/09/13 02:40:58;;;;;;;33.20;23.53;;;10.90;99.90;;;;;;5113581;28;20195;-76
2022/09/13 02:43:30;;;;;;;32.60;23.57;;;10.90;99.90;;;;;;5113341;28;20245;-76
2022/09/13 02:46:09;;;;;;;30.70;23.07;;;10.90;99.90;;;;;;5113536;28;20203;-76
2022/09/13 02:48:47;;;;;;;31.23;22.50;;;10.80;99.90;;;;;;5113409;28;20196;-76
2022/09/13 02:51:23;;;;;;;29.57;21.57;;;10.80;99.90;;;;;;5113411;28;20548;-76
2022/09/13 02:53:57;;;;;;;30.03;21.83;;;10.80;99.90;;;;;;5113188;28;20220;-76
2022/09/13 02:56:30;;;;;;;29.87;22.20;;;10.70;99.90;;;;;;5113193;28;20239;-76
2022/09/13 02:59:00;;;;;;;28.93;22.80;;;10.70;99.90;;;;;;5113383;28;20203;-76
2022/09/13 03:01:27;;;;;;;30.87;22.87;;;10.70;99.90;;;;;;5113239;28;20241;-76
2022/09/13 03:03:55;;;;;;;35.90;26.53;;;10.80;99.90;;;;;;5113212;28;20195;-76
2022/09/13 03:06:23;;;;;;;34.00;26.43;;;10.70;99.90;;;;;;5113083;28;20196;-76
2022/09/13 03:08:50;;;;;;;27.97;23.33;;;10.70;99.90;;;;;;5113242;28;20203;-76
2022/09/13 03:11:29;;;;;;;28.30;23.10;;;10.70;99.90;;;;;;5113163;28;20206;-76
2022/09/13 03:14:12;;;;;;;26.70;21.30;;;10.60;99.90;;;;;;5112993;28;20654;-77
2022/09/13 03:16:54;;;;;;;30.23;21.20;;;10.50;99.90;;;;;;5113088;28;20276;-76
2022/09/13 03:19:35;;;;;;;50.43;39.63;;;10.50;99.90;;;;;;5113066;28;20639;-76
2022/09/13 03:22:24;;;;;;;44.77;36.17;;;10.50;99.90;;;;;;5113155;28;20196;-76
2022/09/13 03:24:57;;;;;;;42.60;34.83;;;10.40;99.90;;;;;;5113072;28;20199;-76
2022/09/13 03:27:33;;;;;;;31.73;26.20;;;10.50;99.90;;;;;;5113030;28;20335;-76
2022/09/13 03:30:05;;;;;;;30.80;24.00;;;10.50;99.90;;;;;;5113234;28;20252;-76
2022/09/13 03:32:41;;;;;;;27.80;21.40;;;10.50;99.90;;;;;;5113137;28;20286;-76
2022/09/13 03:35:17;;;;;;;24.13;20.37;;;10.50;99.90;;;;;;5112803;28;20660;-76
2022/09/13 03:37:52;;;;;;;24.27;20.90;;;10.40;99.90;;;;;;5112879;28;20196;-76
2022/09/13 03:40:26;;;;;;;27.83;22.60;;;10.40;99.90;;;;;;5113004;28;20231;-77
2022/09/13 03:43:00;;;;;;;32.43;22.90;;;10.40;99.90;;;;;;5112965;28;20196;-77
2022/09/13 03:45:30;;;;;;;28.00;22.43;;;10.50;99.90;;;;;;5112715;28;20690;-76
2022/09/13 03:47:58;;;;;;;32.63;23.40;;;10.40;99.90;;;;;;5112760;28;20261;-76
2022/09/13 03:50:27;;;;;;;28.57;22.43;;;10.40;99.90;;;;;;5116626;28;20195;-76
2022/09/13 03:53:00;;;;;;;28.10;22.03;;;10.40;99.90;;;;;;5116610;28;20192;-76
2022/09/13 03:55:27;;;;;;;27.00;22.33;;;10.50;99.90;;;;;;5116095;28;20224;-76
2022/09/13 03:57:54;;;;;;;34.30;22.93;;;10.50;99.90;;;;;;5116220;27;20593;-76
2022/09/13 04:00:21;;;;;;;27.00;22.03;;;10.40;99.90;;;;;;5116312;27;20192;-77
2022/09/13 04:02:48;;;;;;;27.07;22.17;;;10.40;99.90;;;;;;5116156;28;20204;-76
2022/09/13 04:05:14;;;;;;;30.73;21.90;;;10.40;99.90;;;;;;5116438;28;20262;-76
2022/09/13 04:07:42;;;;;;;25.47;21.57;;;10.30;99.90;;;;;;5116278;27;20196;-76
2022/09/13 04:10:10;;;;;;;28.47;22.07;;;10.30;99.90;;;;;;5116166;28;20230;-76
2022/09/13 04:12:37;;;;;;;32.80;23.30;;;10.20;99.90;;;;;;5116158;28;20606;-76
2022/09/13 04:15:05;;;;;;;27.47;21.77;;;10.30;99.90;;;;;;5115835;27;20191;-76
2022/09/13 04:17:31;;;;;;;27.83;22.57;;;10.20;99.90;;;;;;5116231;28;20253;-76
2022/09/13 04:19:58;;;;;;;30.03;22.33;;;10.30;99.90;;;;;;5116162;28;20200;-76
2022/09/13 04:22:25;;;;;;;30.30;22.07;;;10.30;99.90;;;;;;5116156;28;20192;-77
2022/09/13 04:24:53;;;;;;;29.80;21.23;;;10.30;99.90;;;;;;5115987;28;20191;-77
2022/09/13 04:27:20;;;;;;;27.07;21.93;;;10.30;99.90;;;;;;5115821;28;20578;-76
2022/09/13 04:29:46;;;;;;;27.57;21.87;;;10.30;99.90;;;;;;5115917;28;20195;-76
2022/09/13 04:32:13;;;;;;;29.37;23.07;;;10.20;99.90;;;;;;5115985;28;20244;-76
2022/09/13 04:34:40;;;;;;;33.37;23.37;;;10.10;99.90;;;;;;5115782;28;20200;-76
2022/09/13 04:37:06;;;;;;;29.40;21.97;;;10.10;99.90;;;;;;5115656;27;20227;-76
2022/09/13 04:39:33;;;;;;;32.17;22.73;;;10.10;99.90;;;;;;5115715;28;20196;-77
2022/09/13 04:42:02;;;;;;;27.63;22.30;;;10.10;99.90;;;;;;5115549;28;20196;-77
2022/09/13 04:44:29;;;;;;;31.60;22.93;;;10.20;99.90;;;;;;5115367;28;20646;-76
2022/09/13 04:46:55;;;;;;;29.87;23.10;;;10.20;99.90;;;;;;5115639;28;20191;-76
2022/09/13 04:49:22;;;;;;;30.07;22.83;;;10.30;99.90;;;;;;5115610;28;20203;-76
2022/09/13 04:51:49;;;;;;;34.20;22.23;;;10.20;99.90;;;;;;5115392;28;20260;-76
2022/09/13 04:54:16;;;;;;;31.03;22.07;;;10.20;99.90;;;;;;5115215;28;20655;-76
2022/09/13 04:56:43;;;;;;;33.00;23.20;;;10.20;99.90;;;;;;5115123;28;20698;-76
2022/09/13 04:59:12;;;;;;;33.03;23.40;;;10.20;99.90;;;;;;5115062;28;20199;-76
2022/09/13 05:01:40;;;;;;;30.90;22.83;;;10.20;99.90;;;;;;5114009;28;20195;-77
2022/09/13 05:04:07;;;;;;;30.00;22.77;;;10.20;99.90;;;;;;5115332;27;20206;-76
2022/09/13 05:06:34;;;;;;;27.13;22.13;;;10.30;99.90;;;;;;5115042;28;20253;-76
2022/09/13 05:09:02;;;;;;;30.00;22.33;;;10.30;99.90;;;;;;5115115;28;20218;-76
2022/09/13 05:11:29;;;;;;;32.17;22.67;;;10.40;99.90;;;;;;5115096;28;20203;-76
2022/09/13 05:13:58;;;;;;;30.47;22.43;;;10.40;99.90;;;;;;5114895;28;20647;-76
2022/09/13 05:16:27;;;;;;;31.03;22.43;;;10.40;99.90;;;;;;5116065;28;20262;-75
2022/09/13 05:18:54;;;;;;;30.07;22.67;;;10.50;99.90;;;;;;5114995;28;20200;-76
2022/09/13 05:21:21;;;;;;;31.10;22.90;;;10.50;99.90;;;;;;5114695;28;20196;-75
2022/09/13 05:23:49;;;;;;;31.00;22.83;;;10.60;99.90;;;;;;5114565;28;20203;-75
2022/09/13 05:26:16;;;;;;;32.50;24.57;;;10.70;99.90;;;;;;5114423;28;20199;-76
2022/09/13 05:28:43;;;;;;;30.30;24.87;;;10.80;99.90;;;;;;5114663;28;20199;-75
2022/09/13 05:31:14;;;;;;;29.43;23.00;;;10.90;99.90;;;;;;5114333;28;20596;-76
2022/09/13 05:33:42;;;;;;;29.93;22.70;;;11.10;99.90;;;;;;5114376;28;20203;-75
2022/09/13 05:36:09;;;;;;;27.23;21.57;;;11.20;99.90;;;;;;5113991;28;20219;-75
2022/09/13 05:38:36;;;;;;;25.57;21.23;;;11.30;99.90;;;;;;5114252;28;20601;-76
2022/09/13 05:41:05;;;;;;;26.20;20.53;;;11.50;99.90;;;;;;5114130;28;20256;-75
2022/09/13 05:43:34;;;;;;;27.63;21.00;;;11.70;99.90;;;;;;5114093;28;20195;-77
2022/09/13 05:46:01;;;;;;;26.47;20.57;;;12.00;99.90;;;;;;5114179;28;20199;-77
2022/09/13 05:48:28;;;;;;;23.63;20.17;;;12.10;99.90;;;;;;5113794;28;20290;-77
2022/09/13 05:50:56;;;;;;;23.50;20.17;;;12.20;99.90;;;;;;5113837;28;20195;-77
2022/09/13 05:53:23;;;;;;;25.40;18.83;;;12.30;99.90;;;;;;5113983;28;20195;-77
2022/09/13 05:55:50;;;;;;;21.57;18.67;;;12.40;99.90;;;;;;5113808;28;20231;-77
2022/09/13 05:58:16;;;;;;;20.43;17.07;;;12.50;99.90;;;;;;5113841;28;20249;-77
2022/09/13 06:00:43;;;;;;;21.57;16.50;;;12.60;99.90;;;;;;5113764;28;20651;-77
2022/09/13 06:03:10;;;;;;;16.90;15.17;;;12.70;99.90;;;;;;5113776;28;20558;-77
2022/09/13 06:05:36;;;;;;;17.63;15.67;;;12.70;99.90;;;;;;5113820;28;20269;-77
2022/09/13 06:08:04;;;;;;;19.10;15.73;;;12.80;99.90;;;;;;5113728;28;20195;-77
2022/09/13 06:10:31;;;;;;;16.77;14.90;;;12.70;99.90;;;;;;5113911;28;20659;-77
2022/09/13 06:12:57;;;;;;;19.30;16.77;;;12.70;99.90;;;;;;5113498;28;20199;-77
2022/09/13 06:15:24;;;;;;;21.70;15.33;;;12.80;99.90;;;;;;5113710;28;20252;-77
2022/09/13 06:17:51;;;;;;;18.20;14.53;;;13.00;99.90;;;;;;5113394;28;20227;-77
2022/09/13 06:20:17;;;;;;;17.53;14.93;;;13.10;99.90;;;;;;5113390;28;20248;-77
2022/09/13 06:22:44;;;;;;;16.30;13.57;;;13.20;99.90;;;;;;5113656;28;20199;-77
2022/09/13 06:25:12;;;;;;;16.03;14.33;;;13.30;99.90;;;;;;5113391;28;20200;-77
2022/09/13 06:27:38;;;;;;;13.93;11.83;;;13.40;99.90;;;;;;5113470;28;20196;-77
2022/09/13 06:30:07;;;;;;;13.83;12.37;;;13.60;99.90;;;;;;5113331;28;20604;-75
2022/09/13 06:32:34;;;;;;;15.40;12.80;;;13.70;99.90;;;;;;5113537;28;20274;-75
2022/09/13 06:35:01;;;;;;;15.13;12.33;;;13.80;99.90;;;;;;5113479;28;20199;-77
2022/09/13 06:37:27;;;;;;;14.83;12.70;;;13.90;99.90;;;;;;5113342;28;20276;-76
2022/09/13 06:39:54;;;;;;;15.47;11.97;;;14.10;99.90;;;;;;5113231;28;20200;-77
2022/09/13 06:42:22;;;;;;;12.23;11.03;;;14.30;99.90;;;;;;5113247;28;20650;-75
2022/09/13 06:44:49;;;;;;;13.17;11.73;;;14.50;99.90;;;;;;5113088;28;20655;-75
2022/09/13 06:47:15;;;;;;;12.67;11.47;;;14.60;99.90;;;;;;5113087;28;20252;-75
2022/09/13 06:49:42;;;;;;;11.67;10.53;;;14.80;99.90;;;;;;5113353;28;20253;-75
2022/09/13 06:52:09;;;;;;;13.30;11.07;;;14.90;99.90;;;;;;5113197;28;20566;-75
2022/09/13 06:54:35;;;;;;;10.83;9.73;;;15.00;99.90;;;;;;5113162;28;20669;-78
2022/09/13 06:57:02;;;;;;;12.53;10.83;;;15.00;99.90;;;;;;5112646;28;20280;-77
2022/09/13 06:59:30;;;;;;;17.30;10.33;;;15.10;99.90;;;;;;5113026;28;20219;-77
2022/09/13 07:01:57;;;;;;;14.00;10.40;;;15.20;99.90;;;;;;5112890;28;20544;-77
2022/09/13 07:04:24;;;;;;;11.27;10.07;;;15.50;99.90;;;;;;5113136;28;20244;-77
2022/09/13 07:06:50;;;;;;;15.47;11.40;;;15.60;99.90;;;;;;5113033;28;20241;-77
2022/09/13 07:09:20;;;;;;;11.50;10.30;;;15.70;99.90;;;;;;5113107;28;20195;-77
2022/09/13 07:11:48;;;;;;;17.02;10.90;;;15.90;99.90;;;;;;5113072;28;20248;-77
2022/09/13 07:14:17;;;;;;;12.02;10.65;;;16.10;99.90;;;;;;5112971;28;20195;-77
2022/09/13 07:16:46;;;;;;;13.77;10.23;;;16.30;99.90;;;;;;5112817;28;20608;-77
2022/09/13 07:19:15;;;;;;;11.88;10.20;;;16.50;99.90;;;;;;5112902;28;20654;-77
2022/09/13 07:21:41;;;;;;;13.27;10.82;;;16.80;99.90;;;;;;5112877;28;20291;-77
2022/09/13 07:24:09;;;;;;;12.35;9.95;;;17.00;99.90;;;;;;5114742;28;20203;-77
2022/09/13 07:26:36;;;;;;;12.05;10.38;;;17.10;99.90;;;;;;5116979;28;20204;-76
2022/09/13 07:29:06;;;;;;;12.70;10.18;;;17.20;99.90;;;;;;5117124;28;20218;-77
2022/09/13 07:31:35;;;;;;;11.95;9.68;;;17.30;99.90;;;;;;5117422;28;20199;-77
2022/09/13 07:34:05;;;;;;;10.60;9.00;;;17.20;99.90;;;;;;5116930;28;20208;-76
2022/09/13 07:36:33;;;;;;;10.55;9.35;;;17.20;99.90;;;;;;5116815;28;20219;-76
2022/09/13 07:39:01;;;;;;;10.25;9.27;;;17.30;99.90;;;;;;5116653;28;20192;-76
2022/09/13 07:41:29;;;;;;;10.13;8.70;;;17.40;99.90;;;;;;5116708;27;20231;-76
2022/09/13 07:43:57;;;;;;;11.20;8.32;;;17.60;99.90;;;;;;5116813;28;20196;-76
2022/09/13 07:46:25;;;;;;;9.20;8.02;;;17.60;99.90;;;;;;5116745;28;20203;-76
2022/09/13 07:48:53;;;;;;;9.55;8.32;;;17.80;99.90;;;;;;5116436;28;20195;-76
2022/09/13 07:51:23;;;;;;;10.25;8.85;;;18.00;99.90;;;;;;5116278;28;20196;-76
2022/09/13 07:53:51;;;;;;;10.20;7.78;;;18.20;99.90;;;;;;5116560;28;20218;-77
2022/09/13 07:56:20;;;;;;;10.07;7.68;;;18.30;99.90;;;;;;5115912;28;20219;-76
2022/09/13 07:58:48;;;;;;;9.85;7.45;;;18.30;99.90;;;;;;5116103;28;20617;-76
2022/09/13 08:01:16;;;;;;;9.73;8.40;;;18.40;99.90;;;;;;5116387;28;20206;-76
2022/09/13 08:03:44;;;;;;;9.60;8.13;;;18.70;99.90;;;;;;5116199;28;20195;-76
2022/09/13 08:06:11;;;;;;;7.88;7.18;;;18.70;99.90;;;;;;5116101;28;20600;-76
2022/09/13 08:08:39;;;;;;;11.77;6.32;;;18.90;99.90;;;;;;5115865;28;20596;-76
2022/09/13 08:11:07;;;;;;;7.28;6.55;;;19.10;99.90;;;;;;5116202;28;20199;-76
2022/09/13 08:13:34;;;;;;;6.63;6.03;;;19.40;99.90;;;;;;5116119;28;20200;-76
2022/09/13 08:16:05;;;;;;;7.43;6.72;;;19.70;99.90;;;;;;5115976;28;20241;-76
2022/09/13 08:18:32;;;;;;;7.28;6.55;;;19.90;99.90;;;;;;5115831;28;20220;-76
2022/09/13 08:20:59;;;;;;;6.88;5.55;;;20.40;99.90;;;;;;5115704;28;20631;-76
2022/09/13 08:23:26;;;;;;;8.07;5.97;;;20.50;99.90;;;;;;5116239;28;20199;-76
2022/09/13 08:25:54;;;;;;;5.95;5.45;;;20.40;99.90;;;;;;5115695;28;20195;-76
2022/09/13 08:28:22;;;;;;;7.00;5.55;;;20.60;99.90;;;;;;5115569;28;20203;-76
2022/09/13 08:30:49;;;;;;;5.35;4.78;;;20.80;99.90;;;;;;5115764;28;20669;-76
2022/09/13 08:33:16;;;;;;;6.03;5.07;;;21.30;99.90;;;;;;5115697;28;20196;-76
2022/09/13 08:35:50;;;;;;;5.18;4.68;;;21.60;99.90;;;;;;5115198;27;20308;-76
2022/09/13 08:38:17;;;;;;;7.55;4.68;;;22.00;99.90;;;;;;5115613;28;20283;-76
2022/09/13 08:40:47;;;;;;;5.55;4.78;;;22.30;99.90;;;;;;5115535;27;20222;-76
2022/09/13 08:43:25;;;;;;;4.55;4.15;;;22.30;99.90;;;;;;5115370;28;20195;-76
2022/09/13 08:45:54;;;;;;;4.35;4.05;;;22.40;99.90;;;;;;5115316;27;20200;-76
2022/09/13 08:48:25;;;;;;;4.18;3.78;;;22.60;99.90;;;;;;5115231;28;20256;-76
2022/09/13 08:50:57;;;;;;;4.93;4.35;;;22.40;99.90;;;;;;5115347;28;20206;-76
2022/09/13 08:53:28;;;;;;;4.18;3.85;;;22.50;99.90;;;;;;5115345;28;20199;-76
2022/09/13 08:56:03;;;;;;;4.47;4.07;;;22.90;99.90;;;;;;5115214;28;20219;-76
2022/09/13 08:58:48;;;;;;;3.47;3.17;;;23.00;99.90;;;;;;5115200;28;20291;-76
2022/09/13 09:01:24;;;;;;;3.83;3.40;;;22.80;99.90;;;;;;5115485;28;20191;-75
2022/09/13 09:03:58;;;;;;;3.80;3.50;;;22.50;99.90;;;;;;5114999;28;20535;-77
2022/09/13 09:06:25;;;;;;;3.63;3.33;;;22.20;99.90;;;;;;5114892;28;20195;-75
2022/09/13 09:08:57;;;;;;;3.60;3.30;;;22.10;99.90;;;;;;5114827;28;20631;-76
2022/09/13 09:11:34;;;;;;;3.63;3.33;;;22.30;99.90;;;;;;5114960;28;20392;-76
2022/09/13 09:14:07;;;;;;;4.32;3.13;;;22.40;99.90;;;;;;5114932;28;20199;-75
2022/09/13 09:16:39;;;;;;;4.53;3.50;;;22.10;99.90;;;;;;5114745;28;20228;-75
2022/09/13 09:19:18;;;;;;;4.43;3.10;;;22.30;99.90;;;;;;5114565;28;20600;-77
2022/09/13 09:21:46;;;;;;;6.97;3.58;;;22.20;99.90;;;;;;5114868;28;20260;-76
2022/09/13 09:24:18;;;;;;;4.28;3.10;;;22.30;99.90;;;;;;5114590;28;20196;-77
2022/09/13 09:26:45;;;;;;;4.35;3.95;;;22.20;99.90;;;;;;5114648;28;20199;-75
2022/09/13 09:29:18;;;;;;;3.67;3.38;;;21.90;99.90;;;;;;5114539;28;20294;-75
2022/09/13 09:31:53;;;;;;;4.50;3.38;;;21.70;99.90;;;;;;5114291;28;20204;-75
2022/09/13 09:34:31;;;;;;;4.03;3.63;;;21.70;99.90;;;;;;5114333;28;20658;-76
2022/09/13 09:37:04;;;;;;;4.07;3.67;;;21.80;99.90;;;;;;5114273;28;20202;-76
2022/09/13 09:39:37;;;;;;;3.58;3.28;;;22.20;99.90;;;;;;5114465;28;20203;-76
2022/09/13 09:42:04;;;;;;;4.57;3.42;;;22.90;99.90;;;;;;5113966;28;20239;-76
2022/09/13 09:44:33;;;;;;;4.18;3.40;;;23.60;99.90;;;;;;5114336;28;20260;-77
2022/09/13 09:47:04;;;;;;;3.30;3.00;;;23.90;99.90;;;;;;5113778;28;20196;-76
2022/09/13 09:52:27;;;;;;;3.40;3.10;;;24.70;99.90;;;;;;5114406;28;20718;-76
2022/09/13 09:54:58;;;;;;;3.30;3.00;;;24.80;99.90;;;;;;5114156;28;20213;-76
2022/09/13 09:57:52;;;;;;;5.10;3.05;;;25.00;99.90;;;;;;5114106;28;20223;-76
2022/09/13 10:00:22;;;;;;;3.25;3.05;;;24.40;99.90;;;;;;5113969;28;20241;-75
2022/09/13 10:02:53;;;;;;;3.40;3.10;;;24.30;99.90;;;;;;5114184;28;20242;-78
2022/09/13 10:05:22;;;;;;;3.58;3.13;;;24.10;99.90;;;;;;5113559;28;20199;-77
2022/09/13 10:07:56;;;;;;;3.35;3.00;;;24.40;99.90;;;;;;5113780;28;20196;-77
2022/09/13 10:10:26;;;;;;;4.45;3.17;;;24.40;99.90;;;;;;5113598;28;20235;-76
2022/09/13 10:12:55;;;;;;;5.57;2.85;;;24.50;99.90;;;;;;5113699;28;20200;-76
2022/09/13 10:15:28;;;;;;;8.27;3.67;;;24.10;99.90;;;;;;5113385;28;20731;-77
2022/09/13 10:18:04;;;;;;;3.97;3.40;;;23.70;99.90;;;;;;5113914;28;20219;-77
2022/09/13 10:20:34;;;;;;;4.25;3.63;;;23.70;99.90;;;;;;5113663;28;20208;-76
2022/09/13 10:23:26;;;;;;;4.88;3.47;;;23.70;99.90;;;;;;5113628;28;20203;-76
2022/09/13 10:26:03;;;;;;;5.05;3.20;;;23.80;99.90;;;;;;5093501;28;20199;-76
2022/09/13 10:28:32;;;;;;;3.75;3.45;;;23.90;99.90;;;;;;5113464;28;20203;-76
2022/09/13 10:31:04;;;;;;;4.03;3.10;;;23.70;99.90;;;;;;5113423;28;20199;-77
2022/09/13 10:33:36;;;;;;;4.90;3.80;;;24.00;99.90;;;;;;5113322;28;20610;-77
2022/09/13 10:36:07;;;;;;;3.28;2.97;;;24.00;99.90;;;;;;5113337;28;20207;-76
2022/09/13 10:38:36;;;;;;;4.82;2.95;;;24.00;99.90;;;;;;5113041;28;20230;-77
2022/09/13 10:41:06;;;;;;;3.72;3.42;;;24.10;99.90;;;;;;5113418;28;20227;-77
2022/09/13 10:43:34;;;;;;;3.20;3.00;;;24.00;99.90;;;;;;5113339;28;20195;-76
2022/09/13 10:46:05;;;;;;;4.50;2.85;;;24.10;99.90;;;;;;5113171;28;20196;-76
2022/09/13 10:48:46;;;;;;;2.88;2.67;;;24.10;99.90;;;;;;5113305;28;20199;-75
2022/09/13 10:51:28;;;;;;;3.05;2.83;;;24.10;99.90;;;;;;5113040;28;20195;-76
2022/09/13 10:54:09;;;;;;;3.33;2.75;;;24.20;99.90;;;;;;5113365;28;20256;-78
2022/09/13 10:56:36;;;;;;;3.17;2.88;;;24.70;99.90;;;;;;5113122;28;20319;-76
2022/09/13 10:59:16;;;;;;;3.55;2.92;;;25.00;99.90;;;;;;5116219;28;20228;-76
2022/09/13 11:01:52;;;;;;;3.45;3.15;;;25.40;99.90;;;;;;5117225;28;20191;-76
2022/09/13 11:05:12;;;;;;;3.95;3.20;;;24.70;99.90;;;;;;5117206;28;20654;-76
2022/09/13 11:07:52;;;;;;;3.10;2.75;;;24.50;99.90;;;;;;5117175;28;20203;-76
2022/09/13 11:10:27;;;;;;;4.15;3.03;;;24.30;99.90;;;;;;5117250;28;20255;-76
2022/09/13 11:13:03;;;;;;;3.63;2.75;;;23.70;99.90;;;;;;5117203;28;20244;-76
2022/09/13 11:15:42;;;;;;;4.90;2.83;;;24.10;99.90;;;;;;5117084;28;20604;-76
2022/09/13 11:18:34;;;;;;;3.13;2.83;;;23.90;99.90;;;;;;5116861;28;20690;-75
2022/09/13 11:21:15;;;;;;;5.05;3.30;;;23.40;99.90;;;;;;5117147;28;20214;-77
2022/09/13 11:23:53;;;;;;;4.32;3.40;;;23.00;99.90;;;;;;5117060;28;20195;-77
2022/09/13 11:26:29;;;;;;;3.40;3.10;;;22.70;99.90;;;;;;5116882;28;20199;-77
2022/09/13 11:29:05;;;;;;;3.58;3.22;;;22.50;99.90;;;;;;5116964;28;20248;-77
2022/09/13 11:31:42;;;;;;;3.60;3.22;;;22.30;99.90;;;;;;5116948;28;20203;-77
2022/09/13 11:34:28;;;;;;;3.78;3.10;;;22.10;99.90;;;;;;5116762;28;20199;-77
2022/09/13 11:37:23;;;;;;;4.40;3.25;;;21.90;99.90;;;;;;5116681;28;20217;-77
2022/09/13 11:39:58;;;;;;;3.97;3.42;;;21.70;99.90;;;;;;5116787;28;20253;-77
2022/09/13 11:42:36;;;;;;;3.85;3.08;;;21.90;99.90;;;;;;5116491;28;20191;-76
2022/09/13 11:45:21;;;;;;;5.28;3.35;;;22.10;99.90;;;;;;5116287;28;20596;-77
2022/09/13 11:48:14;;;;;;;4.03;3.65;;;22.40;99.90;;;;;;5116693;28;20256;-77
2022/09/13 11:50:55;;;;;;;3.38;3.03;;;22.70;99.90;;;;;;5116511;28;20200;-77
2022/09/13 11:53:49;;;;;;;3.22;2.92;;;22.90;99.90;;;;;;5116284;28;20212;-77
2022/09/13 11:56:21;;;;;;;3.95;2.88;;;23.50;99.90;;;;;;5116300;28;20228;-77
2022/09/13 11:58:52;;;;;;;4.10;3.20;;;23.60;99.90;;;;;;5116423;28;20218;-76
2022/09/13 12:01:23;;;;;;;3.63;2.90;;;23.70;99.90;;;;;;5116799;28;20199;-75
2022/09/13 12:03:55;;;;;;;4.47;2.80;;;23.70;99.90;;;;;;5116089;28;20214;-75
2022/09/13 12:06:27;;;;;;;3.25;3.00;;;23.50;99.90;;;;;;5116464;28;20252;-75
2022/09/13 12:08:59;;;;;;;3.25;2.92;;;24.10;99.90;;;;;;5116243;28;20196;-76
2022/09/13 12:11:31;;;;;;;6.28;3.00;;;24.60;99.90;;;;;;5115835;28;20627;-76
2022/09/13 12:14:01;;;;;;;3.60;3.30;;;24.90;99.90;;;;;;5116097;28;20260;-77
2022/09/13 12:16:31;;;;;;;4.72;3.03;;;25.20;99.90;;;;;;5115898;28;20264;-77
2022/09/13 12:19:01;;;;;;;4.18;3.00;;;25.30;99.90;;;;;;5116066;28;20281;-77
2022/09/13 12:21:32;;;;;;;7.32;3.00;;;25.90;99.90;;;;;;5115987;28;20195;-77
2022/09/13 12:24:05;;;;;;;2.92;2.70;;;26.50;99.90;;;;;;5116073;28;20202;-78
2022/09/13 12:26:38;;;;;;;4.53;2.80;;;27.20;99.90;;;;;;5115807;28;20203;-77
2022/09/13 12:29:13;;;;;;;6.68;2.90;;;28.20;99.90;;;;;;5115566;28;20196;-77
2022/09/13 12:31:40;;;;;;;3.00;2.70;;;28.10;99.90;;;;;;5115605;28;20614;-78
2022/09/13 12:34:14;;;;;;;4.28;2.50;;;28.10;99.90;;;;;;5115733;28;20586;-77
2022/09/13 12:37:12;;;;;;;4.15;2.70;;;27.00;99.90;;;;;;5115373;28;20562;-75
2022/09/13 12:40:10;;;;;;;3.75;2.67;;;26.10;99.90;;;;;;5115315;28;20666;-77
2022/09/13 12:43:06;;;;;;;3.15;2.85;;;25.90;99.90;;;;;;5115704;28;20196;-76
2022/09/13 12:45:57;;;;;;;3.38;2.70;;;25.60;99.90;;;;;;5113400;28;20581;-76
2022/09/13 12:48:33;;;;;;;3.28;2.83;;;25.30;99.90;;;;;;5115351;28;20290;-76
2022/09/13 12:51:14;;;;;;;4.30;2.70;;;26.50;99.90;;;;;;5115407;28;20195;-76
2022/09/13 12:54:22;;;;;;;2.50;2.30;;;26.50;99.90;;;;;;5115270;28;20203;-76
2022/09/13 12:57:02;;;;;;;3.45;2.58;;;25.90;99.90;;;;;;5115305;28;20223;-76
2022/09/13 12:59:49;;;;;;;6.25;2.53;;;25.70;99.90;;;;;;5115098;28;20231;-77
2022/09/13 13:02:27;;;;;;;3.10;2.80;;;24.90;99.90;;;;;;5114966;28;20659;-77